This is the latest recevied weather packets stored in our database for station/object IZ0CGP. If no packets are shown the sender has not sent any weather packets the latest 10 day(s).
| Time | Temp. | Humidity | Pressure | Rain* | Wind** | Luminosity | Snow |
|---|---|---|---|---|---|---|---|
| 1787755882 | 34.44° C | 43% | 1014.7 hPa | 0 mm | - | - | - |
| 1787754072 | 35.56° C | 41% | 1014.7 hPa | 0 mm | - | - | - |
| 1787752272 | 34.44° C | 44% | 1014.7 hPa | 0 mm | - | - | - |
| 1787750467 | 33.89° C | 46% | 1015.7 hPa | 0 mm | - | - | - |
| 1787748664 | 33.33° C | 45% | 1015.7 hPa | 0 mm | - | - | - |
| 1787746858 | 33.33° C | 44% | 1015.7 hPa | 0 mm | - | - | - |
| 1787745061 | 32.22° C | 45% | 1016.7 hPa | 0 mm | - | - | - |
| 1787743245 | 32.78° C | 50% | 1015.7 hPa | 0 mm | - | - | - |
| 1787741433 | 32.22° C | 47% | 1016.7 hPa | 0 mm | - | - | - |
| 1787739627 | 31.67° C | 52% | 1016.7 hPa | 0 mm | - | - | - |
| 1787737811 | 30° C | 59% | 1016.7 hPa | 0 mm | - | - | - |
| 1787735983 | 29.44° C | 65% | 1016.7 hPa | 0 mm | - | - | - |
| 1787734170 | 29.44° C | 66% | 1016.7 hPa | 0 mm | - | - | - |
| 1787732363 | 27.78° C | 69% | 1016.7 hPa | 0 mm | - | - | - |
| 1787730544 | 26.11° C | 72% | 1016.7 hPa | 0 mm | - | - | - |
| 1787728734 | 26.11° C | 73% | 1016.7 hPa | 0 mm | - | - | - |
| 1787726934 | 25.56° C | 74% | 1015.7 hPa | 0 mm | - | - | - |
| 1787725116 | 22.78° C | 79% | 1016.7 hPa | 0 mm | - | - | - |
| 1787723295 | 22.22° C | 81% | 1015.7 hPa | 0 mm | - | - | - |
| 1787721495 | 20.56° C | 86% | 1015.7 hPa | 0 mm | - | - | - |
| 1787719668 | 20° C | 88% | 1015.7 hPa | 0 mm | - | - | - |
| 1787717820 | 20° C | 87% | 1015.7 hPa | 0 mm | - | - | - |
| 1787716017 | 20° C | 87% | 1015.7 hPa | 0 mm | - | - | - |
| 1787714211 | 20° C | 87% | 1015.7 hPa | 0 mm | - | - | - |
| 1787712384 | 20° C | 87% | 1015.7 hPa | 0 mm | - | - | - |
* Rain latest hour (hover to see other rain measurements)
** Current wind speed in m/s (hover to see current wind gust speed)